Time;durP1;ratioP1;P1;durP2;ratioP2;P2;SDS_P1;SDS_P2;PMS_P1;PMS_P2;Temp;Humidity;BMP_temperature;BMP_pressure;BME280_temperature;BME280_humidity;BME280_pressure;Samples;Min_cycle;Max_cycle;Signal;HPM_P1;HPM_P2
2021/07/22 00:00:24;;;;;;;11.43;9.67;;;20.00;95.60;;;;;;5038872;28;20563;-80
2021/07/22 00:02:50;;;;;;;10.97;8.90;;;20.00;96.10;;;;;;5052037;28;20667;-80
2021/07/22 00:05:17;;;;;;;9.70;8.73;;;19.90;96.30;;;;;;5033670;28;20582;-81
2021/07/22 00:07:46;;;;;;;9.00;8.13;;;19.90;96.60;;;;;;5033810;28;20650;-81
2021/07/22 00:10:16;;;;;;;10.57;9.47;;;19.90;97.00;;;;;;5049983;28;20551;-80
2021/07/22 00:12:42;;;;;;;9.50;8.50;;;19.90;97.20;;;;;;5050178;28;21138;-80
2021/07/22 00:15:09;;;;;;;8.63;7.80;;;19.80;97.50;;;;;;5033474;28;21341;-81
2021/07/22 00:17:35;;;;;;;9.97;8.93;;;19.80;97.70;;;;;;5050160;28;21267;-80
2021/07/22 00:20:01;;;;;;;10.63;9.17;;;19.80;98.00;;;;;;5051100;28;20668;-80
2021/07/22 00:22:28;;;;;;;8.63;7.83;;;19.70;98.30;;;;;;5050202;28;20228;-80
2021/07/22 00:24:54;;;;;;;8.37;7.40;;;19.70;98.60;;;;;;5051520;28;20575;-80
2021/07/22 00:27:20;;;;;;;8.43;7.50;;;19.70;98.80;;;;;;5033253;28;20683;-80
2021/07/22 00:29:47;;;;;;;9.57;8.30;;;19.60;99.10;;;;;;5049978;28;20169;-79
2021/07/22 00:32:13;;;;;;;9.40;8.40;;;19.60;99.30;;;;;;5051326;28;20567;-80
2021/07/22 00:34:39;;;;;;;9.43;8.53;;;19.60;99.70;;;;;;5050699;28;20951;-79
2021/07/22 00:37:05;;;;;;;11.67;8.37;;;19.60;99.90;;;;;;5056033;28;20655;-81
2021/07/22 00:39:31;;;;;;;11.53;7.60;;;19.50;99.90;;;;;;5051620;28;20572;-79
2021/07/22 00:41:57;;;;;;;8.33;7.53;;;19.50;99.90;;;;;;5049679;28;21138;-80
2021/07/22 00:44:23;;;;;;;9.43;8.40;;;19.50;99.90;;;;;;5033565;28;20670;-81
2021/07/22 00:46:49;;;;;;;8.40;7.60;;;19.40;99.90;;;;;;5033099;28;20701;-80
2021/07/22 00:49:16;;;;;;;9.03;7.13;;;19.40;99.90;;;;;;5034982;28;20733;-81
2021/07/22 00:51:42;;;;;;;10.70;8.80;;;19.40;99.90;;;;;;5051045;28;20590;-81
2021/07/22 00:54:10;;;;;;;8.77;7.80;;;19.40;99.90;;;;;;5033257;28;20443;-81
2021/07/22 00:56:37;;;;;;;7.93;7.13;;;19.40;99.90;;;;;;5033271;28;20894;-81
2021/07/22 00:59:03;;;;;;;9.07;7.77;;;19.30;99.90;;;;;;5034446;28;20899;-81
2021/07/22 01:01:30;;;;;;;8.90;7.83;;;19.30;99.90;;;;;;5053439;28;20575;-81
2021/07/22 01:03:57;;;;;;;8.93;8.07;;;19.30;99.90;;;;;;5055633;28;20625;-81
2021/07/22 01:06:23;;;;;;;8.63;7.73;;;19.20;99.90;;;;;;5054657;28;20917;-81
2021/07/22 01:08:49;;;;;;;9.07;8.20;;;19.20;99.90;;;;;;5024073;28;20910;-81
2021/07/22 01:11:25;;;;;;;11.07;7.93;;;19.30;99.90;;;;;;5040425;28;20585;-81
2021/07/22 01:13:51;;;;;;;9.07;8.10;;;19.20;99.90;;;;;;5042829;28;20578;-81
2021/07/22 01:16:18;;;;;;;9.40;8.40;;;19.20;99.90;;;;;;5054251;28;20572;-80
2021/07/22 01:18:46;;;;;;;8.60;7.57;;;19.20;99.90;;;;;;5054786;28;20637;-80
2021/07/22 01:21:12;;;;;;;10.60;8.50;;;19.10;99.90;;;;;;5036675;28;20950;-80
2021/07/22 01:23:38;;;;;;;9.40;8.40;;;19.10;99.90;;;;;;5054583;28;20966;-80
2021/07/22 01:26:40;;;;;;;9.37;7.83;;;19.10;99.90;;;;;;5012311;28;20612;-80
2021/07/22 01:29:26;;;;;;;9.23;7.80;;;19.10;99.90;;;;;;5033972;28;20572;-80
2021/07/22 01:31:52;;;;;;;8.00;7.20;;;19.10;99.90;;;;;;5036429;28;20613;-80
2021/07/22 01:34:17;;;;;;;8.37;7.50;;;19.10;99.90;;;;;;5054172;28;20169;-80
2021/07/22 01:36:43;;;;;;;8.13;7.30;;;19.00;99.90;;;;;;5038143;28;20221;-80
2021/07/22 01:39:09;;;;;;;10.30;7.90;;;19.00;99.90;;;;;;5031274;28;20656;-80
2021/07/22 01:41:38;;;;;;;8.37;7.10;;;19.00;99.90;;;;;;5038883;28;21161;-80
2021/07/22 01:44:04;;;;;;;8.17;7.03;;;19.00;99.90;;;;;;5039743;28;20709;-81
2021/07/22 01:46:32;;;;;;;8.47;7.57;;;19.00;99.90;;;;;;5039219;28;20723;-80
2021/07/22 01:48:58;;;;;;;8.57;7.30;;;19.00;99.90;;;;;;5041759;28;20623;-80
2021/07/22 01:51:26;;;;;;;7.17;6.47;;;19.00;99.90;;;;;;5039578;28;20682;-79
2021/07/22 01:53:58;;;;;;;7.93;6.57;;;18.90;99.90;;;;;;5003899;28;20583;-80
2021/07/22 01:56:24;;;;;;;8.07;7.27;;;18.90;99.90;;;;;;5054434;28;20587;-81
2021/07/22 01:58:49;;;;;;;8.23;7.03;;;18.90;99.90;;;;;;5036114;28;20931;-80
2021/07/22 02:01:18;;;;;;;8.30;6.87;;;18.90;99.90;;;;;;5034878;28;20674;-80
2021/07/22 02:03:48;;;;;;;8.90;7.13;;;18.90;99.90;;;;;;5019584;28;20721;-80
2021/07/22 02:06:15;;;;;;;6.40;5.73;;;18.90;99.90;;;;;;5050485;28;21027;-80
2021/07/22 02:08:46;;;;;;;8.10;6.10;;;18.80;99.90;;;;;;5035900;28;20586;-80
2021/07/22 02:11:14;;;;;;;6.97;6.27;;;18.80;99.90;;;;;;5034622;28;20570;-79
2021/07/22 02:13:39;;;;;;;8.03;6.33;;;18.80;99.90;;;;;;5019863;28;21012;-79
2021/07/22 02:16:07;;;;;;;6.70;5.90;;;18.80;99.90;;;;;;5035634;28;20177;-79
2021/07/22 02:18:32;;;;;;;7.67;5.60;;;18.80;99.90;;;;;;5035445;28;20635;-79
2021/07/22 02:21:06;;;;;;;7.00;6.30;;;18.80;99.90;;;;;;5019650;28;20564;-79
2021/07/22 02:23:34;;;;;;;6.27;5.67;;;18.80;99.90;;;;;;5035472;28;20729;-79
2021/07/22 02:26:19;;;;;;;10.67;6.90;;;18.90;99.90;;;;;;5036433;28;20634;-79
2021/07/22 02:28:45;;;;;;;6.77;5.27;;;18.80;99.90;;;;;;5023206;28;20575;-79
2021/07/22 02:31:12;;;;;;;7.00;5.30;;;18.90;99.90;;;;;;5018958;28;20669;-78
2021/07/22 02:33:42;;;;;;;7.17;5.87;;;18.90;99.90;;;;;;5035590;28;20583;-79
2021/07/22 02:36:09;;;;;;;6.17;5.47;;;18.90;99.90;;;;;;5035508;28;20657;-80
2021/07/22 02:38:53;;;;;;;5.83;4.50;;;18.90;99.90;;;;;;5035212;28;21205;-79
2021/07/22 02:41:19;;;;;;;9.00;5.23;;;18.90;99.90;;;;;;5034975;28;20637;-79
2021/07/22 02:43:46;;;;;;;8.70;5.23;;;18.80;99.90;;;;;;5035115;28;20692;-79
2021/07/22 02:46:13;;;;;;;6.47;5.87;;;18.80;99.90;;;;;;5035082;28;20606;-80
2021/07/22 02:49:00;;;;;;;6.67;6.00;;;18.80;99.90;;;;;;5035480;28;21147;-80
2021/07/22 02:51:30;;;;;;;7.33;6.30;;;18.70;99.90;;;;;;5035127;28;20702;-80
2021/07/22 02:53:57;;;;;;;8.33;7.53;;;18.70;99.90;;;;;;5052848;28;20571;-79
2021/07/22 02:56:23;;;;;;;8.17;7.07;;;18.70;99.90;;;;;;5041388;28;20598;-79
2021/07/22 02:58:52;;;;;;;10.90;6.87;;;18.70;99.90;;;;;;5035164;28;20607;-80
2021/07/22 03:01:19;;;;;;;8.40;6.53;;;18.70;99.90;;;;;;5034863;28;20567;-79
2021/07/22 03:03:47;;;;;;;7.17;6.23;;;18.60;99.90;;;;;;5040132;28;20623;-79
2021/07/22 03:06:15;;;;;;;7.07;6.30;;;18.60;99.90;;;;;;5034816;28;20560;-79
2021/07/22 03:08:44;;;;;;;7.20;6.50;;;18.60;99.90;;;;;;5034525;28;20933;-79
2021/07/22 03:11:11;;;;;;;7.80;7.00;;;18.60;99.90;;;;;;5034297;28;20563;-79
2021/07/22 03:13:38;;;;;;;7.70;6.60;;;18.60;99.90;;;;;;5034306;28;20929;-79
2021/07/22 03:16:07;;;;;;;7.57;6.67;;;18.50;99.90;;;;;;5018226;28;20583;-79
2021/07/22 03:18:55;;;;;;;7.43;6.70;;;18.50;99.90;;;;;;5041231;28;20598;-79
2021/07/22 03:21:21;;;;;;;9.20;6.80;;;18.50;99.90;;;;;;5052055;28;20564;-79
2021/07/22 03:24:07;;;;;;;7.40;6.43;;;18.50;99.90;;;;;;5051927;28;20630;-79
2021/07/22 03:26:33;;;;;;;7.30;6.50;;;18.40;99.90;;;;;;5017702;28;20588;-81
2021/07/22 03:29:01;;;;;;;8.00;6.97;;;18.40;99.90;;;;;;5051854;28;20576;-80
2021/07/22 03:31:30;;;;;;;7.87;6.70;;;18.40;99.90;;;;;;5034051;28;20564;-79
2021/07/22 03:34:07;;;;;;;6.83;6.13;;;18.40;99.90;;;;;;5052012;28;20564;-79
2021/07/22 03:36:38;;;;;;;8.67;7.30;;;18.40;99.90;;;;;;5052141;28;20556;-79
2021/07/22 03:39:14;;;;;;;6.97;5.83;;;18.40;99.90;;;;;;5034611;28;20573;-79
2021/07/22 03:41:49;;;;;;;6.43;5.83;;;18.40;99.90;;;;;;5056507;28;20999;-80
2021/07/22 03:44:43;;;;;;;6.07;5.47;;;18.40;99.90;;;;;;5017590;28;20631;-79
2021/07/22 03:47:14;;;;;;;9.10;6.37;;;18.40;99.90;;;;;;5059479;28;21013;-80
2021/07/22 03:49:42;;;;;;;7.60;6.13;;;18.40;99.90;;;;;;5053792;28;20673;-80
2021/07/22 03:52:18;;;;;;;8.00;6.20;;;18.40;99.90;;;;;;5055978;28;20581;-81
2021/07/22 03:54:50;;;;;;;7.80;6.23;;;18.40;99.90;;;;;;5053922;28;21017;-80
2021/07/22 03:57:16;;;;;;;6.17;5.57;;;18.40;99.90;;;;;;5053804;28;20608;-80
2021/07/22 03:59:43;;;;;;;7.63;6.10;;;18.40;99.90;;;;;;5037186;28;20586;-80
2021/07/22 04:02:08;;;;;;;8.13;5.90;;;18.40;99.90;;;;;;5053752;28;20628;-80
2021/07/22 04:04:43;;;;;;;8.90;7.70;;;18.40;99.90;;;;;;5071741;28;20200;-80
2021/07/22 04:07:10;;;;;;;6.60;5.30;;;18.40;99.90;;;;;;5053814;28;21031;-79
2021/07/22 04:09:45;;;;;;;6.30;5.70;;;18.40;99.90;;;;;;5053615;28;20676;-79
2021/07/22 04:12:36;;;;;;;9.37;8.40;;;18.50;99.90;;;;;;5054344;28;20563;-79
2021/07/22 04:15:40;;;;;;;8.77;7.27;;;18.40;99.90;;;;;;4990412;28;20640;-80
2021/07/22 04:18:36;;;;;;;7.40;6.50;;;18.50;99.90;;;;;;4966671;28;20625;-79
2021/07/22 04:21:25;;;;;;;8.80;5.67;;;18.50;99.90;;;;;;5057405;28;20587;-79
2021/07/22 04:24:05;;;;;;;7.10;6.40;;;18.50;99.90;;;;;;5074087;28;20685;-79
2021/07/22 04:26:36;;;;;;;8.10;6.57;;;18.50;99.90;;;;;;5091015;28;20566;-79
2021/07/22 04:29:18;;;;;;;7.37;6.50;;;18.50;99.90;;;;;;5068744;28;21166;-78
2021/07/22 04:31:44;;;;;;;8.67;6.40;;;18.60;99.90;;;;;;5058753;28;20566;-80
2021/07/22 04:34:28;;;;;;;9.17;7.10;;;18.60;99.90;;;;;;5058930;28;21063;-79
2021/07/22 04:37:07;;;;;;;11.73;7.97;;;18.60;99.90;;;;;;5059684;28;20609;-79
2021/07/22 04:39:32;;;;;;;13.23;7.50;;;18.70;99.90;;;;;;5084049;28;20951;-80
2021/07/22 04:42:08;;;;;;;8.40;7.20;;;18.80;99.90;;;;;;5076625;28;20164;-79
2021/07/22 04:44:56;;;;;;;10.20;8.00;;;18.80;99.90;;;;;;5074731;28;20649;-81
2021/07/22 04:47:45;;;;;;;11.27;9.43;;;18.90;99.90;;;;;;5044640;28;20983;-80
2021/07/22 04:50:33;;;;;;;11.53;10.13;;;18.90;99.90;;;;;;5033191;28;20598;-80
2021/07/22 04:53:18;;;;;;;11.73;9.83;;;18.90;99.90;;;;;;5078119;28;20573;-80
2021/07/22 04:55:49;;;;;;;10.33;9.10;;;18.90;99.90;;;;;;5076518;28;20609;-80
2021/07/22 04:58:15;;;;;;;10.13;9.13;;;19.00;99.90;;;;;;5040300;28;20634;-80
2021/07/22 05:00:41;;;;;;;10.63;9.53;;;19.00;99.90;;;;;;5040540;28;20570;-80
2021/07/22 05:03:09;;;;;;;14.30;10.60;;;19.20;99.90;;;;;;5040129;28;20637;-80
2021/07/22 05:05:37;;;;;;;9.37;8.03;;;19.40;99.90;;;;;;5075010;28;20624;-80
2021/07/22 05:08:21;;;;;;;12.80;10.60;;;19.60;99.90;;;;;;5074715;28;20594;-79
2021/07/22 05:11:16;;;;;;;10.30;8.90;;;19.70;99.90;;;;;;5052724;28;21031;-78
2021/07/22 05:13:59;;;;;;;10.10;8.90;;;19.80;99.90;;;;;;5056927;28;20581;-78
2021/07/22 05:16:43;;;;;;;8.80;8.00;;;19.90;99.90;;;;;;5056582;28;20625;-79
2021/07/22 05:19:17;;;;;;;11.33;10.10;;;20.00;99.90;;;;;;5040223;28;20590;-80
2021/07/22 05:22:02;;;;;;;10.60;8.87;;;20.00;99.90;;;;;;5040261;28;20585;-79
2021/07/22 05:24:55;;;;;;;9.00;7.97;;;20.10;99.90;;;;;;5043888;28;20630;-79
2021/07/22 05:27:32;;;;;;;9.40;8.40;;;20.10;99.90;;;;;;5074638;28;20621;-80
2021/07/22 05:30:16;;;;;;;11.07;9.97;;;20.20;99.90;;;;;;5078649;28;20567;-80
2021/07/22 05:32:58;;;;;;;10.03;8.63;;;20.20;99.90;;;;;;5058987;28;20923;-79
2021/07/22 05:36:03;;;;;;;10.10;8.43;;;20.40;99.90;;;;;;4992683;28;20640;-79
2021/07/22 05:38:40;;;;;;;9.00;7.97;;;20.50;99.90;;;;;;4990542;28;21176;-78
2021/07/22 05:41:07;;;;;;;9.33;8.40;;;20.70;99.90;;;;;;5025875;28;20587;-78
2021/07/22 05:43:33;;;;;;;10.60;8.30;;;20.80;99.90;;;;;;5053733;28;20320;-79
2021/07/22 05:45:59;;;;;;;8.57;7.67;;;20.90;99.90;;;;;;5051704;28;20563;-79
2021/07/22 05:48:25;;;;;;;10.70;8.20;;;21.00;99.90;;;;;;5035917;28;20653;-79
2021/07/22 05:50:51;;;;;;;9.10;6.50;;;21.00;99.90;;;;;;5054151;28;20598;-80
2021/07/22 05:53:17;;;;;;;7.80;6.97;;;21.10;99.90;;;;;;5054058;28;20624;-80
2021/07/22 05:55:43;;;;;;;7.27;6.57;;;21.10;99.90;;;;;;5052600;28;20181;-78
2021/07/22 05:58:09;;;;;;;8.20;6.90;;;21.20;99.90;;;;;;5054914;28;20680;-79
2021/07/22 06:00:36;;;;;;;9.07;7.53;;;21.50;99.90;;;;;;5043008;28;20580;-79
2021/07/22 06:03:08;;;;;;;8.47;7.30;;;22.10;99.90;;;;;;5062817;28;20201;-79
2021/07/22 06:05:34;;;;;;;9.70;6.70;;;22.70;99.90;;;;;;5042525;28;20584;-80
2021/07/22 06:08:04;;;;;;;6.97;5.80;;;23.20;99.90;;;;;;5071739;28;20653;-80
2021/07/22 06:10:30;;;;;;;7.03;6.33;;;23.70;99.90;;;;;;5061320;28;20578;-79
2021/07/22 06:12:57;;;;;;;7.37;6.77;;;24.30;99.90;;;;;;5043664;28;21008;-80
2021/07/22 06:15:23;;;;;;;11.13;6.80;;;24.60;99.90;;;;;;5056421;28;20572;-79
2021/07/22 06:17:49;;;;;;;7.73;6.93;;;24.80;99.90;;;;;;5036606;28;21186;-79
2021/07/22 06:20:15;;;;;;;9.90;7.20;;;25.00;99.90;;;;;;5055673;28;20631;-80
2021/07/22 06:22:44;;;;;;;8.23;7.53;;;25.10;99.90;;;;;;5055024;28;20177;-80
2021/07/22 06:25:11;;;;;;;9.50;7.70;;;25.20;99.90;;;;;;5054967;28;20943;-82
2021/07/22 06:27:38;;;;;;;8.30;7.43;;;25.30;99.90;;;;;;5035266;28;20702;-81
2021/07/22 06:30:04;;;;;;;13.17;7.73;;;25.40;99.90;;;;;;5035384;28;20701;-82
2021/07/22 06:32:30;;;;;;;10.20;7.50;;;25.40;99.90;;;;;;5035126;28;20172;-81
2021/07/22 06:34:56;;;;;;;8.67;7.83;;;25.50;99.90;;;;;;5052934;28;20560;-82
2021/07/22 06:37:21;;;;;;;7.90;7.20;;;25.60;99.90;;;;;;5053255;28;20591;-82
2021/07/22 06:39:58;;;;;;;9.50;8.30;;;25.70;99.90;;;;;;5035782;28;20200;-81
2021/07/22 06:42:24;;;;;;;9.30;8.37;;;25.90;99.90;;;;;;5054661;28;21316;-81
2021/07/22 06:44:51;;;;;;;9.90;8.30;;;26.00;99.90;;;;;;5051845;28;20630;-81
2021/07/22 06:47:16;;;;;;;8.93;7.93;;;26.10;99.90;;;;;;5085638;28;20203;-81
2021/07/22 06:49:42;;;;;;;10.27;8.47;;;26.30;99.90;;;;;;5054209;28;21008;-80
2021/07/22 06:52:09;;;;;;;10.40;7.70;;;26.30;99.90;;;;;;5034734;28;20185;-80
2021/07/22 06:54:35;;;;;;;8.87;7.97;;;26.50;99.90;;;;;;5034191;28;20259;-81
2021/07/22 06:57:01;;;;;;;9.97;8.00;;;26.50;99.90;;;;;;5052143;28;20607;-81
2021/07/22 06:59:27;;;;;;;10.37;8.27;;;26.60;99.90;;;;;;5052191;28;20637;-81
2021/07/22 07:01:53;;;;;;;10.33;8.83;;;26.70;99.90;;;;;;5069042;28;20172;-82
2021/07/22 07:04:18;;;;;;;8.90;7.70;;;26.70;99.90;;;;;;5021199;28;20583;-81
2021/07/22 07:06:44;;;;;;;9.30;8.40;;;26.80;99.90;;;;;;5053982;28;20192;-80
2021/07/22 07:09:10;;;;;;;9.53;8.53;;;26.90;99.90;;;;;;5054083;28;20246;-81
2021/07/22 07:11:35;;;;;;;9.00;8.10;;;26.90;99.90;;;;;;5071808;28;20164;-84
2021/07/22 07:14:01;;;;;;;8.30;7.13;;;27.00;99.90;;;;;;5072196;28;20164;-84
2021/07/22 07:16:27;;;;;;;10.63;9.30;;;27.00;99.90;;;;;;5071851;28;20168;-83
2021/07/22 07:18:52;;;;;;;8.60;7.70;;;27.10;99.90;;;;;;5050696;28;20168;-79
2021/07/22 07:21:18;;;;;;;9.07;8.17;;;27.10;99.90;;;;;;5060973;28;20169;-81
2021/07/22 07:23:44;;;;;;;8.60;7.70;;;27.20;99.90;;;;;;5034084;28;20207;-82
2021/07/22 07:26:10;;;;;;;8.43;7.37;;;27.20;99.90;;;;;;5050856;28;20196;-81
2021/07/22 07:28:37;;;;;;;8.63;7.27;;;27.30;99.90;;;;;;5033734;28;20544;-81
2021/07/22 07:31:03;;;;;;;10.87;7.70;;;27.40;99.90;;;;;;5051702;28;20571;-81
2021/07/22 07:33:28;;;;;;;9.63;8.13;;;27.40;99.90;;;;;;5050187;28;20571;-81
2021/07/22 07:35:55;;;;;;;8.37;7.50;;;27.50;99.90;;;;;;5050305;28;20234;-81
2021/07/22 07:38:21;;;;;;;8.13;7.43;;;27.50;99.90;;;;;;5051441;28;20185;-88
2021/07/22 07:40:47;;;;;;;8.57;7.50;;;27.60;99.90;;;;;;5051151;28;20567;-88
2021/07/22 07:43:17;;;;;;;8.03;7.23;;;27.60;99.90;;;;;;5051727;28;20710;-89
2021/07/22 07:45:43;;;;;;;9.90;8.80;;;27.60;99.50;;;;;;5051207;28;20603;-87
2021/07/22 07:48:09;;;;;;;10.53;8.30;;;27.60;99.60;;;;;;5033616;28;20643;-88
2021/07/22 07:50:37;;;;;;;8.80;7.90;;;27.70;99.40;;;;;;5050878;28;20589;-85
2021/07/22 07:53:13;;;;;;;8.97;8.10;;;27.80;99.30;;;;;;5040286;28;20582;-87
2021/07/22 07:55:40;;;;;;;11.30;8.60;;;28.00;99.40;;;;;;5053065;28;20677;-87
2021/07/22 07:58:05;;;;;;;24.73;10.57;;;28.40;99.80;;;;;;5076670;28;20667;-86
2021/07/22 08:00:31;;;;;;;16.60;9.33;;;28.70;99.70;;;;;;5070947;28;20669;-86
2021/07/22 08:02:58;;;;;;;9.83;8.70;;;29.00;99.20;;;;;;5071564;28;20176;-87
2021/07/22 08:05:25;;;;;;;9.70;7.30;;;29.40;98.90;;;;;;5053038;28;20883;-84
2021/07/22 08:07:51;;;;;;;9.50;6.67;;;29.80;98.60;;;;;;5071630;28;20647;-85
2021/07/22 08:10:17;;;;;;;8.13;7.33;;;30.40;98.30;;;;;;5060343;28;21215;-86
2021/07/22 08:12:42;;;;;;;10.33;7.10;;;31.20;97.90;;;;;;5059722;28;20168;-87
2021/07/22 08:15:11;;;;;;;8.40;7.53;;;32.00;97.30;;;;;;5057525;28;20590;-87
2021/07/22 08:17:37;;;;;;;8.87;7.50;;;32.80;96.20;;;;;;5041890;28;20198;-86
2021/07/22 08:20:06;;;;;;;6.73;5.60;;;33.70;95.00;;;;;;5075001;28;20584;-85
2021/07/22 08:22:32;;;;;;;6.73;6.03;;;34.20;93.70;;;;;;5053546;28;20611;-88
2021/07/22 08:24:58;;;;;;;7.63;6.77;;;34.90;92.80;;;;;;5058253;28;20729;-85
2021/07/22 08:27:26;;;;;;;14.87;8.57;;;35.30;90.90;;;;;;5055093;28;20660;-78
2021/07/22 08:29:51;;;;;;;36.20;16.10;;;35.50;87.50;;;;;;5070679;28;20735;-78
2021/07/22 08:32:17;;;;;;;22.40;12.50;;;35.60;85.30;;;;;;5036515;28;20663;-77
2021/07/22 08:34:43;;;;;;;24.50;13.20;;;35.70;83.50;;;;;;5070429;28;20175;-77
2021/07/22 08:37:09;;;;;;;14.77;8.30;;;35.80;80.90;;;;;;5070830;28;20321;-78
2021/07/22 08:39:39;;;;;;;9.47;7.43;;;35.70;77.70;;;;;;5070657;28;20195;-78
2021/07/22 08:42:10;;;;;;;7.90;7.10;;;35.50;75.20;;;;;;5070739;28;20695;-78
2021/07/22 08:44:37;;;;;;;8.13;6.77;;;35.40;75.10;;;;;;5070941;28;20629;-78
2021/07/22 08:47:09;;;;;;;7.60;6.90;;;35.50;74.70;;;;;;5070743;28;20617;-78
2021/07/22 08:49:37;;;;;;;7.17;6.47;;;35.40;73.60;;;;;;5070721;28;20566;-78
2021/07/22 08:52:08;;;;;;;10.93;6.80;;;35.60;73.30;;;;;;5035951;28;20606;-78
2021/07/22 08:54:35;;;;;;;7.90;7.10;;;35.80;72.50;;;;;;5070643;28;20924;-78
2021/07/22 08:57:02;;;;;;;7.27;6.67;;;36.00;71.10;;;;;;5070476;28;20687;-78
2021/07/22 08:59:31;;;;;;;6.53;5.90;;;36.10;69.80;;;;;;5053116;28;20631;-78
2021/07/22 09:01:59;;;;;;;6.63;5.97;;;36.20;67.80;;;;;;5070155;28;20712;-77
2021/07/22 09:04:24;;;;;;;7.43;6.53;;;36.30;67.60;;;;;;5053061;28;20622;-77
2021/07/22 09:06:50;;;;;;;11.23;6.43;;;36.40;66.70;;;;;;5052888;28;21152;-77
2021/07/22 09:09:17;;;;;;;9.93;6.70;;;36.50;65.90;;;;;;5071163;28;20171;-78
2021/07/22 09:11:59;;;;;;;7.10;6.37;;;36.50;64.80;;;;;;5055949;28;20215;-79
2021/07/22 09:14:26;;;;;;;8.60;6.33;;;36.70;63.20;;;;;;5071523;28;20673;-78
2021/07/22 09:16:53;;;;;;;6.80;6.23;;;36.80;63.50;;;;;;5053983;28;20653;-78
2021/07/22 09:19:45;;;;;;;5.70;5.20;;;37.10;63.40;;;;;;5058106;28;20597;-78
2021/07/22 09:22:10;;;;;;;7.03;5.87;;;37.40;63.30;;;;;;5071721;28;20601;-79
2021/07/22 09:24:50;;;;;;;5.33;4.83;;;37.60;62.60;;;;;;5040369;28;20622;-79
2021/07/22 09:27:40;;;;;;;5.57;4.67;;;37.90;59.20;;;;;;5039333;28;20266;-79
2021/07/22 09:30:09;;;;;;;5.43;4.90;;;38.30;59.60;;;;;;5056358;28;20965;-78
2021/07/22 09:32:37;;;;;;;4.60;4.20;;;38.90;58.30;;;;;;5040028;28;20581;-80
2021/07/22 09:35:24;;;;;;;5.37;4.90;;;39.20;57.50;;;;;;5074949;28;20574;-80
2021/07/22 09:37:54;;;;;;;5.90;5.40;;;39.60;57.70;;;;;;5055629;28;20686;-80
2021/07/22 09:40:26;;;;;;;5.00;4.50;;;40.10;55.50;;;;;;5055698;28;20578;-79
2021/07/22 09:42:56;;;;;;;5.50;4.70;;;40.50;54.70;;;;;;5073842;28;20567;-78
2021/07/22 09:45:24;;;;;;;6.60;5.40;;;40.80;54.10;;;;;;5056070;28;20562;-78
2021/07/22 09:47:54;;;;;;;5.27;4.77;;;41.10;53.40;;;;;;5038813;22;20705;-79
2021/07/22 09:50:25;;;;;;;4.37;4.03;;;41.40;52.70;;;;;;4976687;28;20575;-78
2021/07/22 09:53:09;;;;;;;5.00;4.60;;;41.60;51.40;;;;;;4975445;28;20610;-75
2021/07/22 09:55:37;;;;;;;5.83;5.07;;;41.60;49.30;;;;;;4975139;28;20947;-78
2021/07/22 09:58:05;;;;;;;4.43;4.13;;;41.80;48.40;;;;;;4958186;28;20607;-78
2021/07/22 10:00:33;;;;;;;4.70;4.20;;;41.90;47.40;;;;;;4957712;28;20602;-77
2021/07/22 10:03:00;;;;;;;5.20;4.80;;;42.10;46.50;;;;;;4975311;28;20586;-77
2021/07/22 10:05:36;;;;;;;10.30;4.77;;;42.20;45.70;;;;;;4980082;28;20575;-76
2021/07/22 10:08:03;;;;;;;13.43;5.00;;;42.30;46.10;;;;;;4964554;28;20973;-76
2021/07/22 10:10:29;;;;;;;4.80;4.30;;;42.50;45.70;;;;;;4959594;28;20606;-76
2021/07/22 10:12:57;;;;;;;4.73;4.30;;;42.60;45.00;;;;;;4943149;28;20563;-76
2021/07/22 10:15:28;;;;;;;5.37;4.87;;;42.70;45.30;;;;;;4958030;28;20675;-75
2021/07/22 10:17:59;;;;;;;5.83;5.30;;;42.80;44.00;;;;;;4957990;28;20611;-77
2021/07/22 10:20:28;;;;;;;5.83;5.33;;;42.80;42.70;;;;;;4957533;28;20637;-76
2021/07/22 10:22:55;;;;;;;6.10;5.60;;;42.50;42.20;;;;;;4975037;28;20564;-77
2021/07/22 10:25:20;;;;;;;5.37;4.87;;;42.20;41.70;;;;;;4957943;28;20591;-77
2021/07/22 10:27:47;;;;;;;5.20;4.80;;;41.80;41.40;;;;;;4974111;28;20609;-76
2021/07/22 10:30:21;;;;;;;6.30;5.70;;;41.30;41.00;;;;;;4974472;28;20266;-77
2021/07/22 10:32:51;;;;;;;5.43;5.03;;;40.80;40.90;;;;;;4956032;28;20566;-76
2021/07/22 10:35:27;;;;;;;5.80;5.30;;;40.10;41.30;;;;;;4956849;28;20678;-76
2021/07/22 10:38:08;;;;;;;6.37;5.77;;;39.40;41.40;;;;;;4974200;28;20602;-77
2021/07/22 10:40:47;;;;;;;7.50;6.37;;;38.70;41.70;;;;;;4976512;28;20567;-77
2021/07/22 10:43:37;;;;;;;7.90;6.90;;;38.10;42.30;;;;;;4961777;28;20677;-77
2021/07/22 10:46:12;;;;;;;6.60;6.00;;;37.50;42.90;;;;;;4963807;28;20607;-78
2021/07/22 10:48:39;;;;;;;9.90;7.50;;;37.00;43.50;;;;;;4969390;28;20721;-77
2021/07/22 10:51:07;;;;;;;8.33;7.53;;;36.70;44.20;;;;;;4972181;28;20621;-77
2021/07/22 10:53:42;;;;;;;7.97;7.17;;;36.50;44.60;;;;;;4973522;28;20622;-78
2021/07/22 10:56:13;;;;;;;7.67;7.00;;;36.30;44.80;;;;;;4961653;28;20587;-76
2021/07/22 10:58:38;;;;;;;7.30;6.60;;;36.20;45.60;;;;;;4972037;28;20697;-75
2021/07/22 11:01:06;;;;;;;6.60;6.00;;;36.20;45.80;;;;;;4972536;28;20689;-76
2021/07/22 11:03:35;;;;;;;7.17;6.57;;;36.40;46.80;;;;;;4973393;28;20190;-77
2021/07/22 11:06:08;;;;;;;7.50;6.83;;;36.70;46.70;;;;;;4972254;28;20591;-76
2021/07/22 11:08:39;;;;;;;7.63;6.97;;;36.90;46.10;;;;;;4973414;28;20618;-76
2021/07/22 11:11:13;;;;;;;6.83;6.23;;;37.20;46.00;;;;;;4971989;28;20674;-76
2021/07/22 11:13:44;;;;;;;7.47;6.77;;;37.50;46.70;;;;;;4956052;28;20661;-76
2021/07/22 11:16:22;;;;;;;7.03;6.43;;;37.80;45.60;;;;;;4972076;28;20563;-76
2021/07/22 11:18:53;;;;;;;6.53;5.93;;;38.00;45.50;;;;;;4972432;28;20595;-76
2021/07/22 11:21:30;;;;;;;6.87;6.20;;;38.40;45.20;;;;;;4972999;28;20583;-77
2021/07/22 11:23:59;;;;;;;6.87;6.27;;;38.50;44.20;;;;;;4972278;28;21138;-77
2021/07/22 11:26:37;;;;;;;6.90;5.97;;;38.40;43.40;;;;;;4973181;28;20662;-77
2021/07/22 11:29:04;;;;;;;6.67;6.07;;;38.20;43.80;;;;;;4971548;28;20610;-77
2021/07/22 11:31:32;;;;;;;7.50;6.80;;;37.90;43.20;;;;;;4972995;28;20563;-77
2021/07/22 11:34:02;;;;;;;7.40;6.77;;;37.60;43.00;;;;;;4979801;28;20621;-76
2021/07/22 11:36:31;;;;;;;6.93;6.10;;;37.10;42.80;;;;;;4982301;28;20931;-76
2021/07/22 11:38:58;;;;;;;7.27;6.60;;;36.60;43.20;;;;;;4978215;28;20604;-75
2021/07/22 11:41:24;;;;;;;7.73;7.00;;;36.10;43.40;;;;;;4963702;28;20596;-76
2021/07/22 11:43:58;;;;;;;6.30;5.80;;;35.80;43.90;;;;;;4986621;28;20587;-75
2021/07/22 11:46:42;;;;;;;7.17;6.57;;;35.70;45.00;;;;;;4982140;28;20570;-76
2021/07/22 11:49:10;;;;;;;6.80;6.30;;;35.80;45.40;;;;;;4980973;28;20717;-75
2021/07/22 11:51:38;;;;;;;7.30;6.60;;;35.90;45.20;;;;;;4962127;28;20586;-75
2021/07/22 11:54:03;;;;;;;7.63;7.00;;;35.70;45.10;;;;;;4978990;28;20681;-76
2021/07/22 11:56:32;;;;;;;7.20;6.50;;;35.70;45.00;;;;;;4946385;29;20603;-77
2021/07/22 11:58:59;;;;;;;7.57;6.80;;;35.50;44.70;;;;;;4919973;29;20273;-78
2021/07/22 12:01:24;;;;;;;7.03;6.40;;;35.30;44.70;;;;;;4953173;29;20601;-78
2021/07/22 12:03:50;;;;;;;8.07;6.80;;;35.10;44.80;;;;;;4953578;29;20583;-78
2021/07/22 12:06:26;;;;;;;7.67;6.97;;;34.90;44.80;;;;;;4952898;29;20183;-77
2021/07/22 12:09:06;;;;;;;8.10;7.37;;;34.60;45.00;;;;;;4952093;28;20200;-78
2021/07/22 12:11:50;;;;;;;8.43;6.70;;;34.40;45.70;;;;;;4941637;29;20590;-78
2021/07/22 12:14:37;;;;;;;6.60;6.07;;;34.30;45.70;;;;;;4937198;29;21047;-78
2021/07/22 12:17:05;;;;;;;8.53;7.50;;;34.10;45.90;;;;;;4961878;28;20578;-78
2021/07/22 12:19:34;;;;;;;7.17;6.47;;;34.00;45.80;;;;;;4952987;29;20581;-79
2021/07/22 12:22:29;;;;;;;6.97;5.90;;;33.80;46.10;;;;;;4938418;29;20668;-78
2021/07/22 12:25:09;;;;;;;7.30;6.63;;;33.60;46.50;;;;;;4974415;28;20588;-77
2021/07/22 12:27:38;;;;;;;7.47;6.50;;;33.60;47.10;;;;;;4956972;28;20678;-77
2021/07/22 12:30:11;;;;;;;8.13;7.43;;;33.70;47.30;;;;;;4940935;28;20697;-77
2021/07/22 12:32:36;;;;;;;7.17;6.53;;;33.70;47.30;;;;;;4956475;28;20700;-75
2021/07/22 12:35:03;;;;;;;8.87;7.37;;;33.60;47.10;;;;;;4973771;28;20706;-77
2021/07/22 12:37:55;;;;;;;8.33;7.53;;;33.50;47.10;;;;;;4973063;28;20191;-76
2021/07/22 12:40:56;;;;;;;8.20;7.40;;;33.40;47.20;;;;;;4961231;28;20574;-77
2021/07/22 12:43:24;;;;;;;7.17;6.50;;;33.30;47.30;;;;;;4944564;28;20746;-77
2021/07/22 12:45:53;;;;;;;9.20;8.20;;;33.20;47.80;;;;;;4972269;28;20582;-77
2021/07/22 12:48:39;;;;;;;13.30;8.80;;;33.20;47.90;;;;;;4954685;28;20619;-77
2021/07/22 12:51:09;;;;;;;8.50;7.70;;;33.20;48.50;;;;;;4971149;28;20924;-78
2021/07/22 12:53:35;;;;;;;9.27;8.03;;;33.30;48.20;;;;;;4936228;29;20685;-77
2021/07/22 12:56:00;;;;;;;11.60;10.50;;;33.30;48.40;;;;;;4955577;28;21097;-78
2021/07/22 12:58:27;;;;;;;9.60;8.70;;;33.30;49.00;;;;;;4956594;29;20588;-77
2021/07/22 13:01:17;;;;;;;8.63;7.57;;;33.30;48.00;;;;;;4938718;29;20177;-77
2021/07/22 13:03:45;;;;;;;8.10;7.30;;;33.20;47.50;;;;;;4956675;29;20573;-76